Time;durP1;ratioP1;P1;durP2;ratioP2;P2;SDS_P1;SDS_P2;PMS_P1;PMS_P2;Temp;Humidity;BMP_temperature;BMP_pressure;BME280_temperature;BME280_humidity;BME280_pressure;Samples;Min_cycle;Max_cycle;Signal;HPM_P1;HPM_P2
2022/01/08 00:00:00;;;;;;;8.47;2.87;;;;;;;;;;5116546;27;20278;-86
2022/01/08 00:02:28;;;;;;;9.23;2.47;;;;;;;;;;5125485;27;20229;-86
2022/01/08 00:04:55;;;;;;;9.50;3.03;;;;;;;;;;5120970;27;20678;-86
2022/01/08 00:07:24;;;;;;;11.03;2.73;;;;;;;;;;5124316;27;20770;-86
2022/01/08 00:09:51;;;;;;;8.23;2.33;;;;;;;;;;5128593;27;20197;-86
2022/01/08 00:12:18;;;;;;;8.07;2.33;;;;;;;;;;5123501;27;20285;-86
2022/01/08 00:14:45;;;;;;;13.03;2.50;;;;;;;;;;5116454;27;20602;-86
2022/01/08 00:17:13;;;;;;;9.10;2.47;;;;;;;;;;5116418;27;20201;-86
2022/01/08 00:19:40;;;;;;;11.93;3.17;;;;;;;;;;5128577;27;20197;-86
2022/01/08 00:22:08;;;;;;;13.30;3.13;;;;;;;;;;5112594;28;20916;-86
2022/01/08 00:24:36;;;;;;;11.27;2.90;;;;;;;;;;5112495;28;20197;-86
2022/01/08 00:27:04;;;;;;;14.40;3.00;;;;;;;;;;5112932;28;20217;-86
2022/01/08 00:29:31;;;;;;;9.43;2.73;;;;;;;;;;5112240;28;20282;-86
2022/01/08 00:31:58;;;;;;;13.53;3.00;;;;;;;;;;5120180;27;20268;-86
2022/01/08 00:34:25;;;;;;;8.10;2.53;;;;;;;;;;5131834;27;20300;-86
2022/01/08 00:36:53;;;;;;;18.40;2.93;;;;;;;;;;5133336;27;20279;-87
2022/01/08 00:39:20;;;;;;;15.50;3.50;;;;;;;;;;5132320;27;20308;-87
2022/01/08 00:41:48;;;;;;;19.33;3.23;;;;;;;;;;5117885;27;20719;-87
2022/01/08 00:44:18;;;;;;;12.83;3.03;;;;;;;;;;5130401;27;20284;-86
2022/01/08 00:46:45;;;;;;;17.70;3.60;;;;;;;;;;5133040;27;20745;-87
2022/01/08 00:49:12;;;;;;;18.50;3.20;;;;;;;;;;5131846;27;20232;-87
2022/01/08 00:51:39;;;;;;;19.47;3.60;;;;;;;;;;5132230;27;20288;-86
2022/01/08 00:54:06;;;;;;;14.20;3.27;;;;;;;;;;5114725;27;20209;-86
2022/01/08 00:56:34;;;;;;;19.47;3.33;;;;;;;;;;5114648;28;20646;-86
2022/01/08 00:59:04;;;;;;;15.13;2.67;;;;;;;;;;5122390;27;20282;-87
2022/01/08 01:01:31;;;;;;;21.20;4.00;;;;;;;;;;5130037;27;20227;-87
2022/01/08 01:03:58;;;;;;;19.90;3.47;;;;;;;;;;5120664;27;20582;-87
2022/01/08 01:06:25;;;;;;;23.53;4.00;;;;;;;;;;5118345;27;20256;-87
2022/01/08 01:08:53;;;;;;;22.23;3.47;;;;;;;;;;5119230;27;20643;-86
2022/01/08 01:11:20;;;;;;;24.47;3.97;;;;;;;;;;5126117;27;20251;-86
2022/01/08 01:13:47;;;;;;;17.50;3.43;;;;;;;;;;5120567;28;20280;-86
2022/01/08 01:16:16;;;;;;;22.93;4.03;;;;;;;;;;5132077;27;20220;-86
2022/01/08 01:18:43;;;;;;;19.23;3.97;;;;;;;;;;5131542;27;20221;-86
2022/01/08 01:21:10;;;;;;;28.60;4.70;;;;;;;;;;5131679;27;20736;-86
2022/01/08 01:23:41;;;;;;;24.83;4.30;;;;;;;;;;5132397;27;20247;-86
2022/01/08 01:26:14;;;;;;;23.63;4.17;;;;;;;;;;5113016;27;20695;-86
2022/01/08 01:28:47;;;;;;;20.47;4.23;;;;;;;;;;5112310;28;20281;-86
2022/01/08 01:48:09;;;;;;;32.27;5.80;;;;;;;;;;5066510;28;20203;-86
2022/01/08 01:50:36;;;;;;;28.33;5.37;;;;;;;;;;5066862;28;20743;-86
2022/01/08 01:53:03;;;;;;;31.20;5.83;;;;;;;;;;5066700;28;20634;-86
2022/01/08 01:55:30;;;;;;;28.17;5.37;;;;;;;;;;5063036;28;20230;-86
2022/01/08 01:58:00;;;;;;;27.07;5.37;;;;;;;;;;5055825;28;20688;-86
2022/01/08 02:00:28;;;;;;;24.47;5.13;;;;;;;;;;5045936;28;20198;-86
2022/01/08 02:02:55;;;;;;;25.43;5.10;;;;;;;;;;5040957;28;20342;-86
2022/01/08 02:05:23;;;;;;;30.03;5.30;;;;;;;;;;5038092;28;20287;-86
2022/01/08 02:07:50;;;;;;;29.37;5.40;;;;;;;;;;5045663;28;20289;-86
2022/01/08 02:10:17;;;;;;;30.40;5.70;;;;;;;;;;5038179;28;20304;-86
2022/01/08 02:12:45;;;;;;;24.40;5.00;;;;;;;;;;5046421;28;20279;-86
2022/01/08 02:15:12;;;;;;;28.33;4.00;;;;;;;;;;5031917;28;20741;-86
2022/01/08 02:17:41;;;;;;;29.63;5.27;;;;;;;;;;5039693;28;20301;-86
2022/01/08 02:20:11;;;;;;;32.23;5.10;;;;;;;;;;5039115;28;20199;-87
2022/01/08 02:22:38;;;;;;;26.87;6.00;;;;;;;;;;5037277;28;20233;-86
2022/01/08 02:25:06;;;;;;;30.20;5.37;;;;;;;;;;5065154;28;20213;-86
2022/01/08 02:27:33;;;;;;;32.03;5.97;;;;;;;;;;5108979;28;20232;-86
2022/01/08 02:30:01;;;;;;;30.27;5.57;;;;;;;;;;5108153;28;20285;-87
2022/01/08 02:32:30;;;;;;;27.43;5.03;;;;;;;;;;5108895;28;20638;-86
2022/01/08 02:34:58;;;;;;;29.47;5.13;;;;;;;;;;5108374;28;20195;-87
2022/01/08 02:37:30;;;;;;;27.53;5.10;;;;;;;;;;5107554;28;20637;-87
2022/01/08 02:39:57;;;;;;;29.87;5.13;;;;;;;;;;5108697;28;20195;-87
2022/01/08 02:42:29;;;;;;;28.20;4.73;;;;;;;;;;5111184;28;20229;-86
2022/01/08 02:44:56;;;;;;;28.77;5.30;;;;;;;;;;5095797;28;20308;-86
2022/01/08 02:47:24;;;;;;;30.47;5.60;;;;;;;;;;5129171;28;20346;-86
2022/01/08 02:49:53;;;;;;;28.67;5.40;;;;;;;;;;5129178;28;20229;-86
2022/01/08 02:52:20;;;;;;;33.73;5.27;;;;;;;;;;5129532;28;20683;-86
2022/01/08 02:54:49;;;;;;;29.57;5.63;;;;;;;;;;5106087;28;20320;-86
2022/01/08 02:57:16;;;;;;;28.47;5.67;;;;;;;;;;5094564;28;20250;-86
2022/01/08 02:59:43;;;;;;;22.63;5.23;;;;;;;;;;5094839;28;20238;-86
2022/01/08 03:02:11;;;;;;;32.00;5.10;;;;;;;;;;5094669;28;20365;-86
2022/01/08 03:04:38;;;;;;;32.77;5.63;;;;;;;;;;5094364;28;20313;-86
2022/01/08 03:07:05;;;;;;;34.40;5.53;;;;;;;;;;5094244;28;20634;-86
2022/01/08 03:09:36;;;;;;;33.53;5.07;;;;;;;;;;5094024;28;20552;-86
2022/01/08 03:12:05;;;;;;;26.60;5.13;;;;;;;;;;5094393;28;20194;-87
2022/01/08 03:14:32;;;;;;;31.90;6.03;;;;;;;;;;5104167;28;20239;-86
2022/01/08 03:16:59;;;;;;;34.60;5.97;;;;;;;;;;5094468;28;20288;-86
2022/01/08 03:19:27;;;;;;;29.60;5.13;;;;;;;;;;5094016;28;20291;-86
2022/01/08 03:21:55;;;;;;;33.93;5.67;;;;;;;;;;5094441;28;20293;-86
2022/01/08 03:24:27;;;;;;;30.53;5.33;;;;;;;;;;5094235;28;20229;-87
2022/01/08 03:26:55;;;;;;;26.53;4.67;;;;;;;;;;5089361;28;20211;-87
2022/01/08 03:29:24;;;;;;;31.07;5.13;;;;;;;;;;5088911;28;20240;-87
2022/01/08 03:31:51;;;;;;;29.23;4.37;;;;;;;;;;5093794;28;20289;-86
2022/01/08 03:34:18;;;;;;;31.37;5.03;;;;;;;;;;5094069;28;20192;-86
2022/01/08 03:36:45;;;;;;;36.37;5.27;;;;;;;;;;5093857;28;20235;-86
2022/01/08 03:39:12;;;;;;;31.27;4.73;;;;;;;;;;5094396;28;20635;-86
2022/01/08 03:41:42;;;;;;;28.13;4.83;;;;;;;;;;5095587;28;20222;-87
2022/01/08 03:44:10;;;;;;;30.10;4.63;;;;;;;;;;5092677;28;20237;-86
2022/01/08 03:46:39;;;;;;;30.77;5.00;;;;;;;;;;5094032;28;20299;-86
2022/01/08 03:49:23;;;;;;;30.93;5.13;;;;;;;;;;5093927;28;20231;-86
2022/01/08 03:51:51;;;;;;;31.90;5.20;;;;;;;;;;5096351;28;20712;-86
2022/01/08 03:54:18;;;;;;;27.23;5.07;;;;;;;;;;5113821;28;20677;-87
2022/01/08 03:56:45;;;;;;;29.63;5.03;;;;;;;;;;5106908;28;20229;-85
2022/01/08 03:59:12;;;;;;;31.23;5.53;;;;;;;;;;5093504;28;20229;-87
2022/01/08 04:01:41;;;;;;;35.23;5.60;;;;;;;;;;5094440;28;20277;-87
2022/01/08 04:04:09;;;;;;;29.50;4.60;;;;;;;;;;5094393;28;20250;-87
2022/01/08 04:06:36;;;;;;;30.67;5.07;;;;;;;;;;5092671;28;20222;-87
2022/01/08 04:09:03;;;;;;;28.80;4.80;;;;;;;;;;5092642;28;20678;-86
2022/01/08 04:11:31;;;;;;;29.07;5.20;;;;;;;;;;5092303;28;20198;-86
2022/01/08 04:13:58;;;;;;;30.00;5.13;;;;;;;;;;5102081;28;20649;-86
2022/01/08 04:16:30;;;;;;;26.63;4.60;;;;;;;;;;5095575;28;20310;-87
2022/01/08 04:18:59;;;;;;;38.80;4.97;;;;;;;;;;5092489;28;20202;-87
2022/01/08 04:24:11;;;;;;;32.97;4.53;;;;;;;;;;5092665;28;20229;-87
2022/01/08 04:26:39;;;;;;;31.57;4.80;;;;;;;;;;5092426;28;20197;-87
2022/01/08 04:29:07;;;;;;;30.50;5.03;;;;;;;;;;5092874;28;20229;-87
2022/01/08 04:31:34;;;;;;;27.93;4.67;;;;;;;;;;5092714;28;20214;-87
2022/01/08 04:34:03;;;;;;;27.67;4.40;;;;;;;;;;5092108;28;20203;-87
2022/01/08 04:36:30;;;;;;;27.33;4.63;;;;;;;;;;5093120;28;20693;-87
2022/01/08 04:38:58;;;;;;;31.77;4.50;;;;;;;;;;5093650;28;20277;-86
2022/01/08 04:41:25;;;;;;;27.23;4.97;;;;;;;;;;5091920;28;20746;-87
2022/01/08 04:43:52;;;;;;;31.33;5.37;;;;;;;;;;5092317;28;20238;-87
2022/01/08 04:46:19;;;;;;;38.47;5.43;;;;;;;;;;5099526;28;20289;-87
2022/01/08 04:48:46;;;;;;;40.40;4.93;;;;;;;;;;5102428;28;20281;-87
2022/01/08 04:51:15;;;;;;;29.53;4.77;;;;;;;;;;5091232;28;20665;-87
2022/01/08 04:53:42;;;;;;;34.97;5.50;;;;;;;;;;5091358;28;20601;-87
2022/01/08 04:56:10;;;;;;;34.13;4.83;;;;;;;;;;5090390;28;20246;-86
2022/01/08 04:58:37;;;;;;;31.47;5.40;;;;;;;;;;5092063;28;20671;-87
2022/01/08 05:01:04;;;;;;;30.90;4.37;;;;;;;;;;5092257;28;20301;-86
2022/01/08 05:03:31;;;;;;;26.23;4.67;;;;;;;;;;5092499;28;20289;-87
2022/01/08 05:05:58;;;;;;;28.57;4.33;;;;;;;;;;5092386;28;20277;-87
2022/01/08 05:08:27;;;;;;;28.87;5.30;;;;;;;;;;5091461;28;20709;-86
2022/01/08 05:10:54;;;;;;;35.27;5.17;;;;;;;;;;5091662;28;20636;-86
2022/01/08 05:13:22;;;;;;;30.60;4.87;;;;;;;;;;5093017;28;20203;-86
2022/01/08 05:15:49;;;;;;;34.80;5.83;;;;;;;;;;5092628;28;20725;-86
2022/01/08 05:18:16;;;;;;;27.53;4.90;;;;;;;;;;5091252;28;20520;-87
2022/01/08 05:20:52;;;;;;;29.83;4.87;;;;;;;;;;5106489;28;20201;-87
2022/01/08 05:23:19;;;;;;;31.77;4.70;;;;;;;;;;5112534;28;20282;-87
2022/01/08 05:25:48;;;;;;;32.07;4.77;;;;;;;;;;5111847;28;20300;-86
2022/01/08 05:28:15;;;;;;;34.57;5.03;;;;;;;;;;5107651;28;20286;-86
2022/01/08 05:30:42;;;;;;;34.90;5.03;;;;;;;;;;5091245;28;20293;-87
2022/01/08 05:33:10;;;;;;;29.87;4.63;;;;;;;;;;5091331;28;20687;-86
2022/01/08 05:35:37;;;;;;;34.67;5.40;;;;;;;;;;5086563;28;20195;-87
2022/01/08 05:38:04;;;;;;;32.27;5.80;;;;;;;;;;5084482;28;20289;-86
2022/01/08 05:40:32;;;;;;;35.20;6.97;;;;;;;;;;5095766;28;20199;-87
2022/01/08 05:43:01;;;;;;;40.47;7.00;;;;;;;;;;5092689;28;20279;-86
2022/01/08 05:45:28;;;;;;;33.20;7.20;;;;;;;;;;5091681;28;20257;-86
2022/01/08 05:47:55;;;;;;;42.23;7.33;;;;;;;;;;5092067;28;20273;-86
2022/01/08 05:50:22;;;;;;;40.17;7.57;;;;;;;;;;5092886;28;20230;-86
2022/01/08 05:52:50;;;;;;;36.83;6.67;;;;;;;;;;5091319;28;20290;-87
2022/01/08 05:55:17;;;;;;;40.70;6.67;;;;;;;;;;5091682;28;20284;-87
2022/01/08 05:57:44;;;;;;;35.63;5.60;;;;;;;;;;5091804;28;20198;-87
2022/01/08 06:00:13;;;;;;;32.63;6.40;;;;;;;;;;5090810;28;20240;-87
2022/01/08 06:02:41;;;;;;;41.80;6.03;;;;;;;;;;5091634;28;20186;-87
2022/01/08 06:05:08;;;;;;;29.67;4.67;;;;;;;;;;5091046;28;20301;-87
2022/01/08 06:07:36;;;;;;;31.30;5.67;;;;;;;;;;5091260;28;20236;-87
2022/01/08 06:10:03;;;;;;;37.70;5.57;;;;;;;;;;5091485;28;20225;-87
2022/01/08 06:12:30;;;;;;;31.17;5.37;;;;;;;;;;5091743;28;20281;-87
2022/01/08 06:14:58;;;;;;;36.73;6.03;;;;;;;;;;5091692;28;20282;-87
2022/01/08 06:17:26;;;;;;;37.70;5.70;;;;;;;;;;5091732;28;20664;-87
2022/01/08 06:19:53;;;;;;;30.83;5.30;;;;;;;;;;5091886;28;20263;-87
2022/01/08 06:22:21;;;;;;;37.83;5.23;;;;;;;;;;5091237;28;20688;-87
2022/01/08 06:24:48;;;;;;;36.73;5.43;;;;;;;;;;5100502;28;20300;-87
2022/01/08 06:27:15;;;;;;;37.57;5.60;;;;;;;;;;5094868;28;20293;-87
2022/01/08 06:29:42;;;;;;;32.30;5.37;;;;;;;;;;5091649;28;20201;-86
2022/01/08 06:32:09;;;;;;;32.93;4.87;;;;;;;;;;5075227;28;20292;-86
2022/01/08 06:34:38;;;;;;;34.80;5.07;;;;;;;;;;5082499;28;20276;-86
2022/01/08 06:37:05;;;;;;;36.47;4.97;;;;;;;;;;5110910;28;20236;-86
2022/01/08 06:39:32;;;;;;;37.93;5.50;;;;;;;;;;5091367;28;20226;-87
2022/01/08 06:42:00;;;;;;;36.57;4.93;;;;;;;;;;5094927;28;20281;-86
2022/01/08 06:44:27;;;;;;;28.23;4.30;;;;;;;;;;5094115;28;20263;-86
2022/01/08 06:46:54;;;;;;;30.87;4.60;;;;;;;;;;5095221;28;20285;-87
2022/01/08 06:49:21;;;;;;;42.63;4.90;;;;;;;;;;5094869;28;20303;-86
2022/01/08 06:51:51;;;;;;;32.13;4.77;;;;;;;;;;5094467;28;20294;-87
2022/01/08 06:54:18;;;;;;;32.73;4.50;;;;;;;;;;5094408;28;20199;-87
2022/01/08 06:56:45;;;;;;;40.70;5.10;;;;;;;;;;5093550;28;20263;-86
2022/01/08 06:59:12;;;;;;;39.50;5.33;;;;;;;;;;5095633;28;20632;-86
2022/01/08 07:01:40;;;;;;;35.30;5.83;;;;;;;;;;5106124;28;20238;-85
2022/01/08 07:04:07;;;;;;;32.90;5.67;;;;;;;;;;5094918;28;20203;-85
2022/01/08 07:06:34;;;;;;;30.40;5.20;;;;;;;;;;5095254;28;20275;-85
2022/01/08 07:09:03;;;;;;;30.40;5.90;;;;;;;;;;5096421;28;20233;-85
2022/01/08 07:11:30;;;;;;;33.97;5.23;;;;;;;;;;5096776;28;20241;-85
2022/01/08 07:13:57;;;;;;;35.10;5.00;;;;;;;;;;5096551;28;20241;-86
2022/01/08 07:16:24;;;;;;;35.50;6.00;;;;;;;;;;5096483;28;20254;-85
2022/01/08 07:18:52;;;;;;;35.33;5.70;;;;;;;;;;5096114;28;20226;-85
2022/01/08 07:21:19;;;;;;;33.00;7.03;;;;;;;;;;5099657;28;20201;-86
2022/01/08 07:23:46;;;;;;;38.40;7.13;;;;;;;;;;5109510;28;20222;-86
2022/01/08 07:26:15;;;;;;;28.87;7.30;;;;;;;;;;5113592;28;20392;-86
2022/01/08 07:28:42;;;;;;;38.50;7.80;;;;;;;;;;5096259;28;20624;-86
2022/01/08 07:31:09;;;;;;;35.13;8.77;;;;;;;;;;5095815;28;20206;-86
2022/01/08 07:33:36;;;;;;;39.93;9.33;;;;;;;;;;5096964;28;20214;-86
2022/01/08 07:36:04;;;;;;;42.50;9.67;;;;;;;;;;5114189;28;20244;-86
2022/01/08 07:38:31;;;;;;;41.47;9.77;;;;;;;;;;5106870;28;20568;-86
2022/01/08 07:40:58;;;;;;;33.23;7.87;;;;;;;;;;5095831;28;20232;-86
2022/01/08 07:43:27;;;;;;;33.87;8.10;;;;;;;;;;5093081;28;20226;-86
2022/01/08 07:45:54;;;;;;;34.70;7.03;;;;;;;;;;5093419;28;20264;-86
2022/01/08 07:48:22;;;;;;;37.80;7.27;;;;;;;;;;5093027;28;20229;-86
2022/01/08 07:50:49;;;;;;;30.50;6.77;;;;;;;;;;5092848;28;20745;-86
2022/01/08 07:53:16;;;;;;;38.77;7.67;;;;;;;;;;5093896;28;20281;-86
2022/01/08 07:55:43;;;;;;;37.33;7.03;;;;;;;;;;5093203;28;20244;-87
2022/01/08 07:58:11;;;;;;;38.33;7.10;;;;;;;;;;5093201;28;20281;-86
2022/01/08 08:00:39;;;;;;;39.53;8.20;;;;;;;;;;5093113;28;20218;-86
2022/01/08 08:03:07;;;;;;;35.07;9.03;;;;;;;;;;5094347;28;20286;-86
2022/01/08 08:05:34;;;;;;;49.30;9.93;;;;;;;;;;5092651;28;20780;-86
2022/01/08 08:08:01;;;;;;;52.77;10.83;;;;;;;;;;5092834;28;20274;-86
2022/01/08 08:10:29;;;;;;;48.43;11.07;;;;;;;;;;5092980;28;20589;-86
2022/01/08 08:12:56;;;;;;;49.10;10.50;;;;;;;;;;5092889;28;20292;-83
2022/01/08 08:15:24;;;;;;;44.40;10.23;;;;;;;;;;5092815;28;20205;-84
2022/01/08 08:17:53;;;;;;;42.97;10.20;;;;;;;;;;5092717;28;20217;-84
2022/01/08 08:20:21;;;;;;;38.90;7.90;;;;;;;;;;5100875;28;20226;-84
2022/01/08 08:22:48;;;;;;;42.73;8.37;;;;;;;;;;5090169;28;20293;-83
2022/01/08 08:25:15;;;;;;;43.90;8.00;;;;;;;;;;5092185;28;20290;-85
2022/01/08 08:27:43;;;;;;;39.47;7.43;;;;;;;;;;5093129;28;20286;-85
2022/01/08 08:30:11;;;;;;;46.50;8.67;;;;;;;;;;5089447;28;20213;-86
2022/01/08 08:32:38;;;;;;;36.97;6.47;;;;;;;;;;5092633;28;20282;-85
2022/01/08 08:35:08;;;;;;;39.40;7.50;;;;;;;;;;5091768;28;20236;-85
2022/01/08 08:37:35;;;;;;;31.23;6.50;;;;;;;;;;5091438;28;20636;-84
2022/01/08 08:40:02;;;;;;;29.67;5.50;;;;;;;;;;5090948;28;20623;-83
2022/01/08 08:42:41;;;;;;;31.20;5.80;;;;;;;;;;5092151;28;20284;-83
2022/01/08 08:45:16;;;;;;;35.03;5.60;;;;;;;;;;5086230;28;20292;-83
2022/01/08 08:47:44;;;;;;;33.73;6.17;;;;;;;;;;5091145;28;20678;-83
2022/01/08 08:50:14;;;;;;;36.27;7.27;;;;;;;;;;5090804;28;20695;-83
2022/01/08 08:52:41;;;;;;;37.90;7.17;;;;;;;;;;5091639;28;20591;-84
2022/01/08 08:55:09;;;;;;;35.80;6.07;;;;;;;;;;5091483;28;20222;-84
2022/01/08 08:57:36;;;;;;;38.17;6.43;;;;;;;;;;5091775;28;20216;-83
2022/01/08 09:00:04;;;;;;;34.63;6.03;;;;;;;;;;5091078;28;20210;-84
2022/01/08 09:02:31;;;;;;;32.87;6.07;;;;;;;;;;5089905;28;20186;-83
2022/01/08 09:04:58;;;;;;;35.30;5.43;;;;;;;;;;5090784;28;20253;-84
2022/01/08 09:07:27;;;;;;;32.00;5.60;;;;;;;;;;5071434;28;20262;-84
2022/01/08 09:09:54;;;;;;;38.10;6.97;;;;;;;;;;5077322;28;20679;-85
2022/01/08 09:12:21;;;;;;;38.40;6.37;;;;;;;;;;5091358;28;20290;-83
2022/01/08 09:14:49;;;;;;;32.33;5.90;;;;;;;;;;5091178;28;20200;-83
2022/01/08 09:17:16;;;;;;;32.37;5.73;;;;;;;;;;5090790;28;20193;-83
2022/01/08 09:19:44;;;;;;;32.90;6.40;;;;;;;;;;5091713;28;20229;-82
2022/01/08 09:22:11;;;;;;;37.43;6.83;;;;;;;;;;5097323;28;20763;-84
2022/01/08 09:24:41;;;;;;;36.33;6.73;;;;;;;;;;5089936;28;20210;-83
2022/01/08 09:27:08;;;;;;;35.77;6.13;;;;;;;;;;5093187;28;20249;-82
2022/01/08 09:29:35;;;;;;;29.83;5.40;;;;;;;;;;5088229;28;20840;-83
2022/01/08 09:32:05;;;;;;;34.57;5.00;;;;;;;;;;5090106;28;20224;-85
2022/01/08 09:34:32;;;;;;;32.67;5.33;;;;;;;;;;5093898;28;20237;-85
2022/01/08 09:36:59;;;;;;;28.83;5.20;;;;;;;;;;5091466;28;20274;-84
2022/01/08 09:39:26;;;;;;;30.27;5.20;;;;;;;;;;5090399;28;20665;-85
2022/01/08 09:41:55;;;;;;;25.77;4.67;;;;;;;;;;5095918;28;20282;-85
2022/01/08 09:44:24;;;;;;;28.53;4.77;;;;;;;;;;5090426;28;20641;-84
2022/01/08 09:46:51;;;;;;;30.33;4.50;;;;;;;;;;5089771;28;20311;-85
2022/01/08 09:49:18;;;;;;;26.37;3.60;;;;;;;;;;5090955;28;20288;-84
2022/01/08 09:51:46;;;;;;;29.80;4.53;;;;;;;;;;5091057;28;20194;-84
2022/01/08 09:54:13;;;;;;;31.43;4.97;;;;;;;;;;5091507;28;20247;-84
2022/01/08 09:56:40;;;;;;;24.40;4.17;;;;;;;;;;5090027;28;20244;-84
2022/01/08 09:59:09;;;;;;;30.53;4.37;;;;;;;;;;5090740;28;20286;-84
2022/01/08 10:01:37;;;;;;;31.70;5.40;;;;;;;;;;5089866;28;20372;-83
2022/01/08 10:04:05;;;;;;;27.40;5.07;;;;;;;;;;5094909;28;20291;-84
2022/01/08 10:06:34;;;;;;;28.17;4.67;;;;;;;;;;5092869;28;20303;-84
2022/01/08 10:09:01;;;;;;;28.83;4.87;;;;;;;;;;5094821;28;20230;-84
2022/01/08 10:11:29;;;;;;;27.70;5.60;;;;;;;;;;5106370;28;20284;-84
2022/01/08 10:14:02;;;;;;;24.67;5.40;;;;;;;;;;5095548;28;20237;-83
2022/01/08 10:19:20;;;;;;;28.27;6.17;;;;;;;;;;5087066;28;20237;-85
2022/01/08 10:21:47;;;;;;;28.20;6.13;;;;;;;;;;5092345;28;20303;-84
2022/01/08 10:24:20;;;;;;;26.87;6.13;;;;;;;;;;5092467;28;20454;-85
2022/01/08 10:26:49;;;;;;;27.43;5.30;;;;;;;;;;5092922;28;20301;-84
2022/01/08 10:29:17;;;;;;;25.23;4.77;;;;;;;;;;5091516;28;20335;-85
2022/01/08 10:31:47;;;;;;;22.33;4.23;;;;;;;;;;5092167;28;20285;-84
2022/01/08 10:34:15;;;;;;;22.33;4.43;;;;;;;;;;5094003;28;20340;-85
2022/01/08 10:36:43;;;;;;;25.03;4.47;;;;;;;;;;5093505;28;20206;-85
2022/01/08 10:39:11;;;;;;;27.43;4.10;;;;;;;;;;5093090;28;20236;-85
2022/01/08 10:41:43;;;;;;;22.90;3.73;;;;;;;;;;5092902;28;20229;-85
2022/01/08 10:44:14;;;;;;;24.10;4.13;;;;;;;;;;5092978;28;20317;-85
2022/01/08 10:46:44;;;;;;;20.70;4.20;;;;;;;;;;5090285;28;20700;-85
2022/01/08 10:49:15;;;;;;;24.17;4.50;;;;;;;;;;5092918;28;20226;-85
2022/01/08 10:51:42;;;;;;;22.87;4.17;;;;;;;;;;5092986;28;20289;-86
2022/01/08 10:54:11;;;;;;;22.03;4.73;;;;;;;;;;5097002;28;20204;-86
2022/01/08 10:56:39;;;;;;;21.40;4.30;;;;;;;;;;5092474;28;20293;-84
2022/01/08 10:59:07;;;;;;;30.30;4.53;;;;;;;;;;5092136;28;20287;-86
2022/01/08 11:01:41;;;;;;;28.07;5.20;;;;;;;;;;5090700;28;20281;-86
2022/01/08 11:04:10;;;;;;;26.43;4.50;;;;;;;;;;5092590;28;20290;-85
2022/01/08 11:06:49;;;;;;;24.47;4.43;;;;;;;;;;5092017;28;20623;-86
2022/01/08 11:09:17;;;;;;;24.33;4.10;;;;;;;;;;5089863;28;20297;-84
2022/01/08 11:11:44;;;;;;;20.40;4.03;;;;;;;;;;5096619;28;20746;-86
2022/01/08 11:14:22;;;;;;;25.53;4.10;;;;;;;;;;5092156;28;20209;-85
2022/01/08 11:16:51;;;;;;;30.17;4.27;;;;;;;;;;5092685;28;20223;-84
2022/01/08 11:19:19;;;;;;;27.57;5.10;;;;;;;;;;5092823;28;20201;-86
2022/01/08 11:21:48;;;;;;;16.87;4.60;;;;;;;;;;5092112;28;20887;-85
2022/01/08 11:24:17;;;;;;;24.60;3.90;;;;;;;;;;5090805;28;20574;-86
2022/01/08 11:26:45;;;;;;;24.17;4.07;;;;;;;;;;5093314;28;20218;-85
2022/01/08 11:29:12;;;;;;;24.37;4.33;;;;;;;;;;5093086;28;20212;-86
2022/01/08 11:31:40;;;;;;;24.27;3.93;;;;;;;;;;5094252;28;20273;-84
2022/01/08 11:34:11;;;;;;;20.10;3.70;;;;;;;;;;5094832;28;20226;-85
2022/01/08 11:36:39;;;;;;;18.43;3.97;;;;;;;;;;5094299;28;20217;-85
2022/01/08 11:39:09;;;;;;;14.07;3.20;;;;;;;;;;5097666;28;20188;-85
2022/01/08 11:41:37;;;;;;;18.67;3.30;;;;;;;;;;5105295;28;20304;-85
2022/01/08 11:44:04;;;;;;;19.30;3.33;;;;;;;;;;5099750;28;20312;-85
2022/01/08 11:46:34;;;;;;;22.87;3.47;;;;;;;;;;5094103;28;20271;-83
2022/01/08 11:49:02;;;;;;;21.37;3.83;;;;;;;;;;5092743;28;20230;-83
2022/01/08 11:51:31;;;;;;;16.53;3.27;;;;;;;;;;5082613;28;20294;-84
2022/01/08 11:53:59;;;;;;;15.97;3.50;;;;;;;;;;5093418;28;20569;-85
2022/01/08 11:56:29;;;;;;;15.10;3.50;;;;;;;;;;5100368;28;20694;-84
2022/01/08 11:59:03;;;;;;;17.73;3.97;;;;;;;;;;5093451;28;20285;-85
2022/01/08 12:01:31;;;;;;;18.97;3.53;;;;;;;;;;5093506;28;20745;-85
2022/01/08 12:03:58;;;;;;;20.20;3.30;;;;;;;;;;5092239;28;20282;-85
2022/01/08 12:06:39;;;;;;;22.03;3.33;;;;;;;;;;5094179;28;20313;-84
2022/01/08 12:12:03;;;;;;;12.77;2.80;;;;;;;;;;5098034;28;20198;-84
2022/01/08 12:14:30;;;;;;;15.63;2.87;;;;;;;;;;5093158;28;20202;-85
2022/01/08 12:16:59;;;;;;;18.67;3.87;;;;;;;;;;5091517;28;20301;-86
2022/01/08 12:19:31;;;;;;;17.27;3.10;;;;;;;;;;5082214;28;20285;-85
2022/01/08 12:22:00;;;;;;;17.87;3.57;;;;;;;;;;5094754;28;20237;-84
2022/01/08 12:24:36;;;;;;;15.67;3.23;;;;;;;;;;5095014;28;20197;-84
2022/01/08 12:27:21;;;;;;;21.90;3.73;;;;;;;;;;5090688;28;20323;-84
2022/01/08 12:29:48;;;;;;;15.50;3.93;;;;;;;;;;5082119;28;20203;-84
2022/01/08 12:32:27;;;;;;;18.03;3.17;;;;;;;;;;5093703;28;20289;-82
2022/01/08 12:35:01;;;;;;;12.53;3.60;;;;;;;;;;5092769;28;20197;-83
2022/01/08 12:37:37;;;;;;;15.77;2.83;;;;;;;;;;5113584;28;20253;-85
2022/01/08 12:40:07;;;;;;;15.97;3.70;;;;;;;;;;5102656;28;20197;-85
2022/01/08 12:42:53;;;;;;;14.40;3.77;;;;;;;;;;5091687;28;20244;-84
2022/01/08 12:45:32;;;;;;;16.60;4.40;;;;;;;;;;5105123;28;20233;-84
2022/01/08 12:48:08;;;;;;;16.47;4.30;;;;;;;;;;5091271;28;20256;-84
2022/01/08 12:50:37;;;;;;;16.77;5.00;;;;;;;;;;5091487;28;20208;-84
2022/01/08 12:53:11;;;;;;;19.67;5.40;;;;;;;;;;5091152;28;20665;-83
2022/01/08 12:55:40;;;;;;;22.43;6.00;;;;;;;;;;4386700;28;10000659;-84
2022/01/08 12:58:13;;;;;;;24.67;6.03;;;;;;;;;;5092138;28;20201;-84
2022/01/08 13:00:54;;;;;;;15.10;4.00;;;;;;;;;;5091869;28;20213;-84
2022/01/08 13:03:23;;;;;;;17.00;3.70;;;;;;;;;;5084716;28;20290;-84
2022/01/08 13:05:50;;;;;;;11.23;3.40;;;;;;;;;;5080185;28;20824;-84
2022/01/08 13:08:23;;;;;;;14.57;2.73;;;;;;;;;;5091592;28;20309;-84
2022/01/08 13:10:54;;;;;;;16.77;3.40;;;;;;;;;;5092245;28;20255;-84
2022/01/08 13:13:22;;;;;;;13.30;3.27;;;;;;;;;;5091549;28;20237;-84
2022/01/08 13:15:50;;;;;;;14.83;3.90;;;;;;;;;;5092057;28;20618;-84
2022/01/08 13:18:19;;;;;;;13.00;3.80;;;;;;;;;;5091538;28;20292;-84
2022/01/08 13:20:46;;;;;;;15.03;3.40;;;;;;;;;;5092030;28;20300;-84
2022/01/08 13:23:13;;;;;;;13.30;2.90;;;;;;;;;;5091285;28;20633;-84
2022/01/08 13:25:41;;;;;;;8.23;2.20;;;;;;;;;;5091767;28;20241;-84
2022/01/08 13:28:08;;;;;;;11.63;2.63;;;;;;;;;;5091211;28;20308;-84
2022/01/08 13:30:36;;;;;;;13.77;2.30;;;;;;;;;;5091651;28;20286;-85
2022/01/08 13:33:05;;;;;;;10.73;3.17;;;;;;;;;;5091665;28;20695;-84
2022/01/08 13:35:34;;;;;;;11.07;3.00;;;;;;;;;;5091678;28;20202;-84
2022/01/08 13:38:01;;;;;;;9.83;3.30;;;;;;;;;;5091709;28;20231;-84
2022/01/08 13:40:29;;;;;;;14.27;3.70;;;;;;;;;;5091561;28;20236;-84
2022/01/08 13:42:56;;;;;;;11.57;3.20;;;;;;;;;;5111715;28;20198;-83
2022/01/08 13:45:26;;;;;;;12.20;3.00;;;;;;;;;;5111623;28;20233;-84
2022/01/08 13:47:54;;;;;;;8.13;2.10;;;;;;;;;;5111891;28;20236;-84
2022/01/08 13:50:23;;;;;;;6.73;1.60;;;;;;;;;;5110533;28;20359;-84
2022/01/08 13:52:55;;;;;;;8.27;1.60;;;;;;;;;;5111893;28;20229;-84
2022/01/08 13:55:24;;;;;;;7.03;2.03;;;;;;;;;;5096398;28;20202;-84
2022/01/08 13:57:54;;;;;;;7.97;1.90;;;;;;;;;;5104167;28;20233;-84
2022/01/08 14:00:22;;;;;;;7.77;1.90;;;;;;;;;;5092477;28;20285;-84
2022/01/08 14:02:51;;;;;;;8.30;1.93;;;;;;;;;;5091480;28;20233;-84
2022/01/08 14:05:18;;;;;;;10.13;3.10;;;;;;;;;;5091946;28;20225;-84
2022/01/08 14:07:45;;;;;;;8.30;2.20;;;;;;;;;;5090862;28;20261;-84
2022/01/08 14:10:15;;;;;;;7.13;2.10;;;;;;;;;;5091792;28;20241;-84
2022/01/08 14:13:00;;;;;;;8.27;2.50;;;;;;;;;;5091158;28;20281;-84
2022/01/08 14:15:28;;;;;;;7.10;1.93;;;;;;;;;;5091430;28;20294;-84
2022/01/08 14:17:55;;;;;;;7.17;2.63;;;;;;;;;;5091170;28;20237;-84
2022/01/08 14:20:24;;;;;;;7.93;2.70;;;;;;;;;;5091564;28;20214;-84
2022/01/08 14:22:51;;;;;;;7.80;2.40;;;;;;;;;;5090002;28;21049;-84
2022/01/08 14:25:21;;;;;;;9.97;3.00;;;;;;;;;;5088668;28;20289;-84
2022/01/08 14:27:48;;;;;;;8.30;2.97;;;;;;;;;;5090475;28;20784;-84
2022/01/08 14:30:15;;;;;;;9.90;2.53;;;;;;;;;;5090594;28;20287;-84
2022/01/08 14:32:44;;;;;;;7.20;2.30;;;;;;;;;;5090835;28;20285;-84
2022/01/08 14:35:12;;;;;;;8.30;2.07;;;;;;;;;;5088759;28;20199;-84
2022/01/08 14:37:42;;;;;;;5.30;1.90;;;;;;;;;;5090456;28;20194;-84
2022/01/08 14:40:17;;;;;;;12.27;3.57;;;;;;;;;;5090339;28;20206;-84
2022/01/08 14:42:47;;;;;;;7.87;2.80;;;;;;;;;;5090985;28;20281;-84
2022/01/08 14:45:18;;;;;;;7.27;2.27;;;;;;;;;;5089954;28;20233;-85
2022/01/08 14:47:46;;;;;;;9.57;3.53;;;;;;;;;;5086651;28;20214;-84
2022/01/08 14:50:15;;;;;;;10.23;2.40;;;;;;;;;;5090598;28;20293;-84
2022/01/08 14:52:43;;;;;;;6.90;2.80;;;;;;;;;;5092886;28;20351;-84
2022/01/08 14:55:11;;;;;;;9.43;3.17;;;;;;;;;;5094602;28;20290;-84
2022/01/08 14:57:38;;;;;;;9.40;3.33;;;;;;;;;;5097506;28;20213;-84
2022/01/08 15:00:09;;;;;;;12.07;4.47;;;;;;;;;;5094265;28;20285;-84
2022/01/08 15:02:37;;;;;;;9.27;3.40;;;;;;;;;;5093904;28;20257;-84